Del Norte — WDC2280 — position and weather

sailwx.info

Track history (hours):
 
Tides and Currents Weather Stations Pressure Air Temp Water Temp Dewpoint Dewpoint Depression Visibility Wind Speed Wind Dir Waves Ship Positions

Del Norte

Owner: Golden Gate Bridge,Hwy & Transportation District, Larkspur, CA. More information available from US FCC via Universal Licensing System and Coast Guard Vessel Documentation Center.

Last reported at 2017-Mar-17 21:34 UTC. Time now 2017-Mar-29 21:15 UTC.
Position N 37°57' W 122°31'.
Warning: this ship's position is 11 days out of date.

Length 48 m.

Type: High speed craft. MMSI: 366990520.

Date/timePositionNaut miles runAvg speedWind from/ knotsBaromVisibWave heightAir tempDewpointWater temp
2017-Mar-17 21:34N 37°57' W 122°31'5 5.3
2017-Mar-17 20:33N 37°52' W 122°27'4 4.4
2017-Mar-17 19:34N 37°49' W 122°23'5 0.1
2017-Mar-15 18:25N 37°47' W 122°17'3 3.0
2017-Mar-15 17:34N 37°47' W 122°21'3 2.6
2017-Mar-15 16:34N 37°47' W 122°17'0 0.0
2017-Mar-13 22:33N 37°47' W 122°17'8 7.7
2017-Mar-13 21:33N 37°51' W 122°26'7 6.8
2017-Mar-13 20:33N 37°57' W 122°30'1 0.6
2017-Mar-13 19:34N 37°56' W 122°30'1313.3
2017-Mar-13 18:33N 37°47' W 122°17'0 0.0
2017-Mar-13 17:33N 37°47' W 122°17'  
Track history (hours):
 
Tides and Currents Weather Stations Pressure Air Temp Water Temp Dewpoint Dewpoint Depression Visibility Wind Speed Wind Dir Waves Ship Positions

Del Norte

Owner: Golden Gate Bridge,Hwy & Transportation District, Larkspur, CA. More information available from US FCC via Universal Licensing System and Coast Guard Vessel Documentation Center.

Last reported at 2017-Mar-17 21:34 UTC. Time now 2017-Mar-29 21:15 UTC.
Position N 37°57' W 122°31'.
Warning: this ship's position is 11 days out of date.

Length 48 m.

Type: High speed craft. MMSI: 366990520.

Date/timePositionNaut miles runAvg speedWind from/ knotsBaromVisibWave heightAir tempDewpointWater temp
2017-Mar-17 21:34N 37°57' W 122°31'5 5.3
2017-Mar-17 20:33N 37°52' W 122°27'4 4.4
2017-Mar-17 19:34N 37°49' W 122°23'5 0.1
2017-Mar-15 18:25N 37°47' W 122°17'3 3.0
2017-Mar-15 17:34N 37°47' W 122°21'3 2.6
2017-Mar-15 16:34N 37°47' W 122°17'0 0.0
2017-Mar-13 22:33N 37°47' W 122°17'8 7.7
2017-Mar-13 21:33N 37°51' W 122°26'7 6.8
2017-Mar-13 20:33N 37°57' W 122°30'1 0.6
2017-Mar-13 19:34N 37°56' W 122°30'1313.3
2017-Mar-13 18:33N 37°47' W 122°17'0 0.0
2017-Mar-13 17:33N 37°47' W 122°17'  

Dump ship's entire track history